Kugluktuk, Canada
Current Conditions -  °F | °C
As of 9:00 PM on Saturday 25 Oct 2014 (Local Time) from CYCO Reporting Station
Light Snow Light Snow  
Wind Chill:   Ceiling: 2000
Heat Index: 19°   Visibility: 4mi
Dew Point: 16°   Wind: 16mph
Humidity: 86%   Direction: 260°W
Pressure: 29.9"   Gusts: NA
Location:  67.83°N, 115.08°W
Report Text: CYCO 260300Z 26014KT 4SM -SN DRSN OVC020 M07/M09 A2990 RMK SC8SLP129
Loading
Personal Weather Stations






























Interactive Weather Map
Tropical Storm Tracking
New forecast layout! Learn more

10-Day Weather Forecast

Advertisements
Track Severe Weather on mobile